Lisburn, United Kingdom
Current Conditions -  °F | °C
As of 6:50 AM on Friday 31 Oct 2014 (Local Time) from EGAC Reporting Station
Scattered Clouds Scattered Clouds  
Wind Chill: 15°   Ceiling: Unl
Heat Index: 15°   Visibility: 6mi
Dew Point: 14°   Wind: 15mph
Humidity: 94%   Direction: 160°SSE
Pressure: 29.68"   Gusts: NA
Location:  54.51°N, 6.04°W
Report Text: EGAC 310650Z 16013KT 9999 FEW005 SCT008 15/14 Q1005
Loading
Personal Weather Stations






























Interactive Weather Map
Tropical Storm Tracking
New forecast layout! Learn more

10-Day Weather Forecast

Advertisements
Track Severe Weather on mobile